Time;durP1;ratioP1;P1;durP2;ratioP2;P2;SDS_P1;SDS_P2;PMS_P1;PMS_P2;Temp;Humidity;BMP_temperature;BMP_pressure;BME280_temperature;BME280_humidity;BME280_pressure;Samples;Min_cycle;Max_cycle;Signal;HPM_P1;HPM_P2
2023/09/16 00:00:56;;;;;;;0.77;0.77;;;;;;;;;;5041661;28;58521;-75
2023/09/16 00:03:21;;;;;;;0.87;0.87;;;;;;;;;;5040667;27;59878;-75
2023/09/16 00:05:46;;;;;;;0.70;0.70;;;;;;;;;;5043431;27;58513;-75
2023/09/16 00:08:12;;;;;;;1.92;1.13;;;;;;;;;;5040520;28;58398;-75
2023/09/16 00:10:37;;;;;;;2.20;0.80;;;;;;;;;;5041771;28;58970;-75
2023/09/16 00:13:02;;;;;;;1.70;1.15;;;;;;;;;;5041031;28;58437;-75
2023/09/16 00:15:27;;;;;;;1.15;1.13;;;;;;;;;;5040780;28;59545;-75
2023/09/16 00:17:53;;;;;;;1.27;1.17;;;;;;;;;;5042534;27;58780;-75
2023/09/16 00:20:18;;;;;;;1.10;1.00;;;;;;;;;;5039507;28;58466;-75
2023/09/16 00:22:43;;;;;;;0.80;0.80;;;;;;;;;;5041323;28;58507;-75
2023/09/16 00:25:08;;;;;;;0.83;0.60;;;;;;;;;;5043480;28;58539;-75
2023/09/16 00:27:34;;;;;;;0.80;0.80;;;;;;;;;;5044625;28;59732;-75
2023/09/16 00:29:59;;;;;;;0.93;0.85;;;;;;;;;;5042532;28;59752;-75
2023/09/16 00:32:26;;;;;;;1.75;1.10;;;;;;;;;;5042112;28;58460;-75
2023/09/16 00:34:52;;;;;;;1.30;1.00;;;;;;;;;;5044775;28;60673;-75
2023/09/16 00:37:17;;;;;;;0.82;0.82;;;;;;;;;;5042589;28;58727;-75
2023/09/16 00:39:43;;;;;;;1.13;0.80;;;;;;;;;;5045294;28;59466;-75
2023/09/16 00:42:08;;;;;;;0.90;0.90;;;;;;;;;;5043715;27;60316;-75
2023/09/16 00:44:33;;;;;;;1.10;0.93;;;;;;;;;;5044143;27;59089;-75
2023/09/16 00:46:58;;;;;;;1.33;1.02;;;;;;;;;;5044327;28;58409;-73
2023/09/16 00:49:26;;;;;;;1.13;1.03;;;;;;;;;;5044233;28;60408;-74
2023/09/16 00:51:51;;;;;;;1.05;0.98;;;;;;;;;;5042958;28;58576;-73
2023/09/16 00:54:17;;;;;;;0.80;0.80;;;;;;;;;;5046057;28;58840;-73
2023/09/16 00:56:42;;;;;;;1.20;1.10;;;;;;;;;;5045379;27;60018;-74
2023/09/16 00:59:08;;;;;;;0.80;0.80;;;;;;;;;;5044253;28;58683;-74
2023/09/16 01:01:37;;;;;;;1.05;1.00;;;;;;;;;;5046628;28;58861;-74
2023/09/16 01:04:02;;;;;;;0.95;0.95;;;;;;;;;;5026221;28;58485;-74
2023/09/16 01:06:27;;;;;;;0.85;0.85;;;;;;;;;;5023812;28;58475;-73
2023/09/16 01:08:52;;;;;;;0.80;0.80;;;;;;;;;;5022495;27;58733;-74
2023/09/16 01:11:17;;;;;;;0.77;0.77;;;;;;;;;;5025777;28;58486;-73
2023/09/16 01:13:43;;;;;;;0.80;0.80;;;;;;;;;;5036039;28;59210;-73
2023/09/16 01:16:21;;;;;;;1.25;1.10;;;;;;;;;;5043056;28;58803;-73
2023/09/16 01:18:52;;;;;;;0.90;0.90;;;;;;;;;;5035241;28;58435;-73
2023/09/16 01:21:18;;;;;;;1.45;1.35;;;;;;;;;;5030210;28;59389;-74
2023/09/16 01:23:44;;;;;;;0.77;0.77;;;;;;;;;;5024963;28;58915;-74
2023/09/16 01:26:09;;;;;;;1.38;1.27;;;;;;;;;;5026450;28;58655;-74
2023/09/16 01:28:34;;;;;;;1.00;1.00;;;;;;;;;;5047013;28;59386;-73
2023/09/16 01:31:00;;;;;;;1.40;1.00;;;;;;;;;;5043540;28;58393;-74
2023/09/16 01:33:28;;;;;;;0.80;0.80;;;;;;;;;;5044496;28;59293;-74
2023/09/16 01:36:02;;;;;;;0.82;0.82;;;;;;;;;;5045824;28;58577;-74
2023/09/16 01:38:27;;;;;;;0.73;0.73;;;;;;;;;;5045873;28;58592;-73
2023/09/16 01:40:53;;;;;;;0.90;0.88;;;;;;;;;;5045976;28;58507;-74
2023/09/16 01:43:19;;;;;;;1.17;0.70;;;;;;;;;;5026890;28;59926;-74
2023/09/16 01:45:44;;;;;;;1.20;1.10;;;;;;;;;;5021901;28;58609;-75
2023/09/16 01:48:09;;;;;;;0.95;0.88;;;;;;;;;;5025229;28;59985;-75
2023/09/16 01:50:35;;;;;;;1.17;1.07;;;;;;;;;;5027778;28;58539;-75
2023/09/16 01:53:01;;;;;;;0.85;0.85;;;;;;;;;;5032288;27;59732;-75
2023/09/16 01:55:26;;;;;;;1.20;0.75;;;;;;;;;;5022832;28;59633;-74
2023/09/16 01:57:51;;;;;;;1.10;1.00;;;;;;;;;;5031811;28;58679;-74
2023/09/16 02:00:16;;;;;;;0.60;0.60;;;;;;;;;;5034163;28;58750;-74
2023/09/16 02:02:42;;;;;;;0.60;0.60;;;;;;;;;;5038950;28;59192;-74
2023/09/16 02:05:07;;;;;;;0.80;0.80;;;;;;;;;;5043656;28;58730;-74
2023/09/16 02:07:32;;;;;;;0.73;0.73;;;;;;;;;;5044092;28;59421;-74
2023/09/16 02:09:57;;;;;;;0.70;0.70;;;;;;;;;;5044869;28;59508;-73
2023/09/16 02:12:22;;;;;;;0.90;0.70;;;;;;;;;;5044957;28;58510;-74
2023/09/16 02:14:51;;;;;;;0.77;0.60;;;;;;;;;;5041766;28;59373;-73
2023/09/16 02:17:17;;;;;;;0.88;0.88;;;;;;;;;;5043670;28;58528;-74
2023/09/16 02:19:42;;;;;;;0.80;0.80;;;;;;;;;;5045553;28;59635;-74
2023/09/16 02:22:07;;;;;;;1.20;1.10;;;;;;;;;;5043868;27;58348;-73
2023/09/16 02:24:32;;;;;;;0.70;0.70;;;;;;;;;;5044928;28;58357;-74
2023/09/16 02:26:58;;;;;;;0.90;0.90;;;;;;;;;;5044741;28;59815;-74
2023/09/16 02:29:23;;;;;;;1.07;1.07;;;;;;;;;;5043665;28;60124;-74
2023/09/16 02:31:48;;;;;;;1.02;0.95;;;;;;;;;;5046749;28;58480;-74
2023/09/16 02:34:13;;;;;;;1.17;1.08;;;;;;;;;;5043959;28;59178;-74
2023/09/16 02:36:39;;;;;;;0.88;0.88;;;;;;;;;;5041896;28;58644;-73
2023/09/16 02:39:04;;;;;;;0.70;0.70;;;;;;;;;;5043390;27;58652;-74
2023/09/16 02:41:30;;;;;;;0.83;0.83;;;;;;;;;;5043979;28;58642;-73
2023/09/16 02:43:55;;;;;;;0.98;0.85;;;;;;;;;;5040872;28;58415;-73
2023/09/16 02:46:20;;;;;;;0.80;0.80;;;;;;;;;;5044981;28;60539;-73
2023/09/16 02:48:45;;;;;;;1.20;1.10;;;;;;;;;;5043057;28;58325;-74
2023/09/16 02:51:11;;;;;;;1.00;0.93;;;;;;;;;;5044215;27;58512;-74
2023/09/16 02:53:37;;;;;;;0.88;0.80;;;;;;;;;;5045128;27;58758;-73
2023/09/16 02:56:03;;;;;;;1.00;0.90;;;;;;;;;;5043852;28;58446;-74
2023/09/16 02:58:28;;;;;;;0.80;0.77;;;;;;;;;;5041993;28;60499;-74
2023/09/16 03:00:54;;;;;;;1.00;0.75;;;;;;;;;;5041633;28;59225;-74
2023/09/16 03:03:19;;;;;;;0.80;0.80;;;;;;;;;;5044165;28;58357;-74
2023/09/16 03:05:45;;;;;;;0.80;0.80;;;;;;;;;;5042972;28;60092;-74
2023/09/16 03:08:11;;;;;;;0.93;0.93;;;;;;;;;;5043933;27;59051;-74
2023/09/16 03:10:36;;;;;;;0.85;0.85;;;;;;;;;;5045065;28;58380;-73
2023/09/16 03:13:01;;;;;;;1.03;0.93;;;;;;;;;;5042466;28;58573;-73
2023/09/16 03:15:27;;;;;;;0.90;0.90;;;;;;;;;;5043708;28;58560;-73
2023/09/16 03:17:52;;;;;;;0.63;0.63;;;;;;;;;;5042041;28;59509;-74
2023/09/16 03:20:17;;;;;;;1.10;1.00;;;;;;;;;;5044854;28;59590;-74
2023/09/16 03:22:42;;;;;;;1.20;0.90;;;;;;;;;;5044576;28;58509;-74
2023/09/16 03:25:07;;;;;;;0.95;0.90;;;;;;;;;;5043592;28;59431;-74
2023/09/16 03:27:33;;;;;;;0.70;0.70;;;;;;;;;;5043793;28;60213;-73
2023/09/16 03:29:58;;;;;;;1.10;1.00;;;;;;;;;;5043320;27;58029;-73
2023/09/16 03:32:27;;;;;;;1.20;0.97;;;;;;;;;;5045644;28;58475;-74
2023/09/16 03:34:52;;;;;;;0.90;0.90;;;;;;;;;;5042644;28;58969;-74
2023/09/16 03:37:17;;;;;;;1.20;1.10;;;;;;;;;;5045019;28;58384;-74
2023/09/16 03:39:42;;;;;;;0.80;0.80;;;;;;;;;;5044948;28;59073;-74
2023/09/16 03:42:08;;;;;;;0.88;0.77;;;;;;;;;;5041915;28;58498;-74
2023/09/16 03:44:33;;;;;;;1.20;1.10;;;;;;;;;;5043248;27;59498;-74
2023/09/16 03:46:58;;;;;;;0.77;0.77;;;;;;;;;;5042502;27;58600;-73
2023/09/16 03:49:23;;;;;;;0.90;0.90;;;;;;;;;;5044836;28;58377;-74
2023/09/16 03:51:48;;;;;;;0.60;0.60;;;;;;;;;;5042867;28;58483;-73
2023/09/16 03:54:14;;;;;;;0.90;0.83;;;;;;;;;;5042154;28;58784;-74
2023/09/16 03:56:39;;;;;;;0.73;0.73;;;;;;;;;;5042314;28;58449;-74
2023/09/16 03:59:04;;;;;;;0.82;0.82;;;;;;;;;;5041422;28;59516;-74
2023/09/16 04:01:29;;;;;;;0.93;0.90;;;;;;;;;;5045324;28;58455;-74
2023/09/16 04:03:55;;;;;;;0.70;0.70;;;;;;;;;;5039921;28;61684;-74
2023/09/16 04:06:20;;;;;;;0.77;0.73;;;;;;;;;;5042512;28;58423;-75
2023/09/16 04:08:45;;;;;;;1.17;1.08;;;;;;;;;;5060744;27;58394;-75
2023/09/16 04:11:11;;;;;;;0.73;0.70;;;;;;;;;;5042412;28;58751;-75
2023/09/16 04:13:36;;;;;;;0.85;0.85;;;;;;;;;;5043379;28;58768;-74
2023/09/16 04:16:01;;;;;;;0.70;0.70;;;;;;;;;;5044612;28;58423;-75
2023/09/16 04:18:27;;;;;;;0.85;0.85;;;;;;;;;;5044090;28;59406;-75
2023/09/16 04:20:55;;;;;;;1.10;1.00;;;;;;;;;;5042394;28;58536;-74
2023/09/16 04:23:20;;;;;;;1.13;0.98;;;;;;;;;;5043672;28;60681;-75
2023/09/16 04:25:45;;;;;;;0.83;0.80;;;;;;;;;;5042846;28;58663;-74
2023/09/16 04:28:11;;;;;;;1.30;1.20;;;;;;;;;;5044443;28;58521;-75
2023/09/16 04:30:47;;;;;;;1.00;0.90;;;;;;;;;;5041551;28;59288;-74
2023/09/16 04:33:13;;;;;;;0.90;0.90;;;;;;;;;;5040694;28;58443;-75
2023/09/16 04:35:42;;;;;;;0.90;0.90;;;;;;;;;;5042764;28;58343;-74
2023/09/16 04:38:07;;;;;;;0.90;0.90;;;;;;;;;;5042658;27;59341;-75
2023/09/16 04:40:32;;;;;;;0.90;0.90;;;;;;;;;;5042677;28;57968;-74
2023/09/16 04:42:57;;;;;;;1.20;0.97;;;;;;;;;;5041814;28;61015;-75
2023/09/16 04:45:23;;;;;;;0.90;0.90;;;;;;;;;;5041736;28;59479;-74
2023/09/16 04:47:48;;;;;;;0.65;0.65;;;;;;;;;;5039729;28;58482;-74
2023/09/16 04:50:13;;;;;;;1.37;1.10;;;;;;;;;;5040887;28;59777;-74
2023/09/16 04:52:39;;;;;;;1.02;0.85;;;;;;;;;;5042496;28;58457;-75
2023/09/16 04:55:04;;;;;;;0.87;0.87;;;;;;;;;;5040787;28;58760;-75
2023/09/16 04:57:29;;;;;;;0.93;0.82;;;;;;;;;;5042680;28;60112;-75
2023/09/16 04:59:54;;;;;;;1.00;0.90;;;;;;;;;;5040887;28;58339;-74
2023/09/16 05:02:19;;;;;;;1.15;1.05;;;;;;;;;;5042402;27;58404;-75
2023/09/16 05:04:45;;;;;;;0.73;0.73;;;;;;;;;;5042600;28;58594;-74
2023/09/16 05:07:10;;;;;;;1.03;0.70;;;;;;;;;;5042456;28;58416;-74
2023/09/16 05:09:35;;;;;;;1.33;1.23;;;;;;;;;;5044495;28;59178;-75
2023/09/16 05:12:00;;;;;;;1.07;1.00;;;;;;;;;;5043046;27;59157;-75
2023/09/16 05:14:25;;;;;;;0.50;0.50;;;;;;;;;;5046904;27;58346;-75
2023/09/16 05:16:51;;;;;;;1.30;1.20;;;;;;;;;;5044262;28;59145;-74
2023/09/16 05:19:16;;;;;;;0.57;0.57;;;;;;;;;;5045953;28;58782;-74
2023/09/16 05:21:41;;;;;;;0.77;0.77;;;;;;;;;;5044163;27;58565;-74
2023/09/16 05:24:06;;;;;;;0.93;0.93;;;;;;;;;;5044427;28;58394;-74
2023/09/16 05:26:31;;;;;;;0.70;0.70;;;;;;;;;;5047309;28;58427;-75
2023/09/16 05:28:57;;;;;;;1.03;0.93;;;;;;;;;;5047343;28;59791;-75
2023/09/16 05:31:23;;;;;;;0.68;0.68;;;;;;;;;;5045932;28;58342;-75
2023/09/16 05:33:48;;;;;;;0.80;0.80;;;;;;;;;;5048389;28;58334;-75
2023/09/16 05:36:14;;;;;;;0.80;0.80;;;;;;;;;;5045549;28;58622;-74
2023/09/16 05:38:39;;;;;;;0.90;0.90;;;;;;;;;;5046196;28;60032;-75
2023/09/16 05:41:04;;;;;;;0.80;0.80;;;;;;;;;;5044985;28;58398;-75
2023/09/16 05:43:29;;;;;;;1.25;1.00;;;;;;;;;;5046206;28;58681;-75
2023/09/16 05:45:54;;;;;;;1.20;1.10;;;;;;;;;;5060652;27;59281;-75
2023/09/16 05:48:19;;;;;;;0.75;0.75;;;;;;;;;;5045551;28;58487;-75
2023/09/16 05:50:44;;;;;;;1.03;1.03;;;;;;;;;;5046267;28;58416;-75
2023/09/16 05:53:10;;;;;;;1.03;1.03;;;;;;;;;;5044706;28;58539;-75
2023/09/16 05:55:38;;;;;;;0.70;0.70;;;;;;;;;;5045786;28;59525;-74
2023/09/16 05:58:06;;;;;;;0.77;0.77;;;;;;;;;;5043977;28;58405;-75
2023/09/16 06:00:31;;;;;;;;;;;;;;;;;;5046307;28;58417;-75
2023/09/16 06:02:56;;;;;;;0.85;0.85;;;;;;;;;;5046012;28;58806;-75
2023/09/16 06:05:22;;;;;;;0.82;0.82;;;;;;;;;;5043818;28;58810;-75
2023/09/16 06:07:47;;;;;;;0.77;0.77;;;;;;;;;;5045351;28;59518;-75
2023/09/16 06:10:12;;;;;;;0.80;0.70;;;;;;;;;;5043966;28;58493;-75
2023/09/16 06:12:37;;;;;;;0.77;0.77;;;;;;;;;;5059876;27;58510;-75
2023/09/16 06:15:02;;;;;;;1.13;1.13;;;;;;;;;;5046023;27;58571;-75
2023/09/16 06:17:27;;;;;;;1.23;1.13;;;;;;;;;;5044603;28;58331;-75
2023/09/16 06:19:54;;;;;;;0.80;0.80;;;;;;;;;;5045682;28;58605;-75
2023/09/16 06:22:22;;;;;;;0.77;0.75;;;;;;;;;;5045160;28;58751;-75
2023/09/16 06:24:48;;;;;;;0.70;0.70;;;;;;;;;;5043955;28;58426;-75
2023/09/16 06:27:14;;;;;;;0.82;0.82;;;;;;;;;;5044871;28;58571;-75
2023/09/16 06:29:40;;;;;;;0.85;0.85;;;;;;;;;;5044963;28;58491;-75
2023/09/16 06:32:06;;;;;;;0.77;0.77;;;;;;;;;;5043307;28;58755;-75
2023/09/16 06:34:31;;;;;;;0.93;0.80;;;;;;;;;;5046059;28;60450;-75
2023/09/16 06:36:57;;;;;;;1.08;1.02;;;;;;;;;;5047271;27;59192;-74
2023/09/16 06:39:23;;;;;;;0.60;0.60;;;;;;;;;;5044740;28;58510;-74
2023/09/16 06:41:49;;;;;;;0.60;0.60;;;;;;;;;;5046320;27;60436;-74
2023/09/16 06:44:14;;;;;;;0.93;0.90;;;;;;;;;;5041991;28;58632;-74
2023/09/16 06:46:40;;;;;;;0.60;0.60;;;;;;;;;;5045233;28;58541;-74
2023/09/16 06:49:05;;;;;;;0.88;0.88;;;;;;;;;;5042394;28;59809;-74
2023/09/16 06:51:30;;;;;;;0.80;0.80;;;;;;;;;;5042785;28;58387;-74
2023/09/16 06:53:56;;;;;;;0.93;0.93;;;;;;;;;;5058413;27;59454;-74
2023/09/16 06:56:21;;;;;;;1.17;1.17;;;;;;;;;;5043476;28;58734;-74
2023/09/16 06:58:46;;;;;;;0.93;0.93;;;;;;;;;;5047057;28;58413;-74
2023/09/16 07:01:12;;;;;;;1.00;0.90;;;;;;;;;;5042545;28;59486;-74
2023/09/16 07:03:37;;;;;;;0.68;0.68;;;;;;;;;;5043492;28;58902;-74
2023/09/16 07:06:03;;;;;;;0.60;0.60;;;;;;;;;;5041456;28;58422;-74
2023/09/16 07:08:28;;;;;;;0.80;0.80;;;;;;;;;;5042600;27;59262;-74
2023/09/16 07:10:56;;;;;;;1.70;0.63;;;;;;;;;;5060237;27;60198;-74
2023/09/16 07:13:21;;;;;;;;;;;;;;;;;;5044894;28;58794;-74
2023/09/16 07:15:53;;;;;;;1.05;0.95;;;;;;;;;;5024008;28;58349;-74
2023/09/16 07:18:18;;;;;;;1.20;0.90;;;;;;;;;;5012295;28;58499;-74
2023/09/16 07:20:43;;;;;;;0.90;0.90;;;;;;;;;;5026818;28;58458;-74
2023/09/16 07:23:08;;;;;;;0.85;0.85;;;;;;;;;;5042719;28;58614;-74
2023/09/16 07:25:34;;;;;;;0.65;0.65;;;;;;;;;;5043778;28;58401;-74
2023/09/16 07:28:00;;;;;;;0.88;0.85;;;;;;;;;;5043802;27;60384;-74
2023/09/16 07:30:26;;;;;;;0.95;0.95;;;;;;;;;;5041702;28;59889;-74
2023/09/16 07:32:51;;;;;;;1.63;1.53;;;;;;;;;;5043032;28;58406;-74
2023/09/16 07:35:17;;;;;;;1.25;1.13;;;;;;;;;;5041415;28;59390;-74
2023/09/16 07:37:42;;;;;;;0.77;0.77;;;;;;;;;;5043421;28;58364;-74
2023/09/16 07:40:07;;;;;;;1.33;1.03;;;;;;;;;;5043711;28;59003;-74
2023/09/16 07:42:35;;;;;;;0.80;0.80;;;;;;;;;;5057447;27;60769;-74
2023/09/16 07:45:00;;;;;;;1.20;1.00;;;;;;;;;;5041626;28;58411;-74
2023/09/16 07:47:25;;;;;;;1.47;1.13;;;;;;;;;;5041431;28;59558;-74
2023/09/16 07:49:50;;;;;;;1.88;1.02;;;;;;;;;;5041403;28;58828;-74
2023/09/16 07:52:16;;;;;;;2.33;0.77;;;;;;;;;;5041859;28;58167;-72
2023/09/16 07:54:42;;;;;;;1.20;1.10;;;;;;;;;;5043836;28;59534;-77
2023/09/16 07:57:07;;;;;;;0.93;0.93;;;;;;;;;;5041776;28;58433;-74
2023/09/16 07:59:32;;;;;;;1.67;1.58;;;;;;;;;;5045168;27;59463;-76
2023/09/16 08:01:57;;;;;;;1.35;1.25;;;;;;;;;;5044608;27;59007;-74
2023/09/16 08:04:22;;;;;;;0.98;0.95;;;;;;;;;;5043377;28;58485;-77
2023/09/16 08:06:49;;;;;;;2.40;1.20;;;;;;;;;;5043161;28;59589;-74
2023/09/16 08:09:15;;;;;;;1.42;1.33;;;;;;;;;;5044539;28;59255;-73
2023/09/16 08:11:40;;;;;;;1.53;1.40;;;;;;;;;;5043796;27;58419;-75
2023/09/16 08:14:05;;;;;;;1.30;1.17;;;;;;;;;;5045949;27;59296;-80
2023/09/16 08:16:30;;;;;;;1.50;1.33;;;;;;;;;;5046846;28;58308;-72
2023/09/16 08:18:55;;;;;;;1.50;1.23;;;;;;;;;;5045275;28;58689;-75
2023/09/16 08:21:20;;;;;;;1.47;1.33;;;;;;;;;;5044484;28;58356;-76
2023/09/16 08:23:46;;;;;;;1.60;1.43;;;;;;;;;;5045224;28;58483;-72
2023/09/16 08:26:11;;;;;;;1.80;1.50;;;;;;;;;;5047250;27;59501;-70
2023/09/16 08:28:36;;;;;;;2.75;2.38;;;;;;;;;;5049062;28;58753;-73
2023/09/16 08:31:02;;;;;;;1.73;1.63;;;;;;;;;;5044401;28;58205;-72
2023/09/16 08:33:27;;;;;;;4.43;2.83;;;;;;;;;;5041791;28;60056;-71
2023/09/16 08:35:53;;;;;;;4.05;1.90;;;;;;;;;;5045211;28;58786;-71
2023/09/16 08:38:18;;;;;;;2.23;1.80;;;;;;;;;;5046363;28;58604;-71
2023/09/16 08:40:43;;;;;;;3.80;1.50;;;;;;;;;;5049208;28;59515;-71
2023/09/16 08:43:14;;;;;;;3.17;2.67;;;;;;;;;;5048834;28;58515;-71
2023/09/16 08:45:42;;;;;;;1.63;1.50;;;;;;;;;;5046913;27;58653;-71
2023/09/16 08:48:11;;;;;;;2.80;1.98;;;;;;;;;;5040783;28;59234;-71
2023/09/16 08:50:39;;;;;;;2.53;1.33;;;;;;;;;;5037043;28;58654;-71
2023/09/16 08:53:05;;;;;;;3.97;2.00;;;;;;;;;;5049559;27;58991;-71
2023/09/16 08:55:32;;;;;;;3.83;2.10;;;;;;;;;;5050756;28;58245;-72
2023/09/16 08:57:59;;;;;;;11.75;3.42;;;;;;;;;;5050958;27;58408;-69
2023/09/16 09:00:24;;;;;;;4.43;2.13;;;;;;;;;;5047800;28;58535;-72
2023/09/16 09:02:50;;;;;;;3.00;2.70;;;;;;;;;;5048353;27;58413;-69
2023/09/16 09:05:16;;;;;;;2.60;2.20;;;;;;;;;;5046787;28;60453;-73
2023/09/16 09:07:41;;;;;;;2.50;2.08;;;;;;;;;;5040912;28;59856;-74
2023/09/16 09:10:07;;;;;;;4.53;2.58;;;;;;;;;;5040624;28;57917;-73
2023/09/16 09:12:36;;;;;;;2.22;2.00;;;;;;;;;;5044738;28;58926;-74
2023/09/16 09:15:04;;;;;;;3.65;2.85;;;;;;;;;;5052605;28;58521;-73
2023/09/16 09:17:35;;;;;;;4.03;2.15;;;;;;;;;;5053994;28;58333;-69
2023/09/16 09:20:01;;;;;;;3.17;2.22;;;;;;;;;;5047300;27;61150;-73
2023/09/16 09:22:26;;;;;;;3.50;2.08;;;;;;;;;;5050144;28;58434;-72
2023/09/16 09:24:51;;;;;;;2.70;1.83;;;;;;;;;;5045230;28;59728;-73
2023/09/16 09:27:16;;;;;;;2.50;1.87;;;;;;;;;;5045090;28;58424;-74
2023/09/16 09:29:42;;;;;;;2.50;2.25;;;;;;;;;;5046115;27;58332;-74
2023/09/16 09:32:09;;;;;;;2.00;1.70;;;;;;;;;;5046045;28;58790;-75
2023/09/16 09:34:34;;;;;;;3.70;1.83;;;;;;;;;;5047068;28;59511;-74
2023/09/16 09:36:59;;;;;;;3.83;1.73;;;;;;;;;;5045319;27;58436;-74
2023/09/16 09:39:24;;;;;;;2.37;2.17;;;;;;;;;;5046469;28;59705;-74
2023/09/16 09:41:52;;;;;;;3.03;1.80;;;;;;;;;;5042685;28;59775;-74
2023/09/16 09:44:17;;;;;;;3.25;1.70;;;;;;;;;;5042533;28;59586;-73
2023/09/16 09:46:43;;;;;;;5.17;2.20;;;;;;;;;;5045757;28;58772;-75
2023/09/16 09:49:12;;;;;;;1.60;1.50;;;;;;;;;;5047069;27;58412;-74
2023/09/16 09:51:38;;;;;;;2.40;1.85;;;;;;;;;;5043066;28;58438;-73
2023/09/16 09:54:04;;;;;;;4.45;2.20;;;;;;;;;;5045903;28;58473;-74
2023/09/16 09:56:31;;;;;;;2.78;2.10;;;;;;;;;;5046767;28;58496;-69
2023/09/16 09:58:56;;;;;;;2.85;2.13;;;;;;;;;;5044702;28;60423;-69
2023/09/16 10:01:21;;;;;;;2.77;2.00;;;;;;;;;;5046481;28;59488;-72
2023/09/16 10:03:48;;;;;;;2.03;1.83;;;;;;;;;;5035610;28;58167;-70
2023/09/16 10:06:14;;;;;;;2.88;2.28;;;;;;;;;;5039714;28;59289;-73
2023/09/16 10:08:39;;;;;;;3.58;2.65;;;;;;;;;;5045013;28;58454;-75
2023/09/16 10:11:05;;;;;;;2.90;2.22;;;;;;;;;;5042259;28;58651;-73
2023/09/16 10:13:31;;;;;;;2.23;2.03;;;;;;;;;;5043687;28;58425;-74
2023/09/16 10:16:00;;;;;;;2.92;2.33;;;;;;;;;;5045040;28;58421;-73
2023/09/16 10:18:25;;;;;;;2.75;1.88;;;;;;;;;;5044880;28;58996;-73
2023/09/16 10:20:50;;;;;;;3.65;1.80;;;;;;;;;;5046190;28;58396;-73
2023/09/16 10:23:16;;;;;;;2.40;2.20;;;;;;;;;;5046439;28;58414;-74
2023/09/16 10:25:41;;;;;;;2.10;1.33;;;;;;;;;;5043882;28;58969;-73
2023/09/16 10:28:07;;;;;;;3.72;2.40;;;;;;;;;;5046463;27;58347;-73
2023/09/16 10:30:33;;;;;;;6.82;3.30;;;;;;;;;;5044054;28;59641;-74
2023/09/16 10:33:04;;;;;;;3.65;1.90;;;;;;;;;;5044552;28;59373;-73
2023/09/16 10:35:29;;;;;;;5.63;2.25;;;;;;;;;;5043775;28;58505;-74
2023/09/16 10:37:56;;;;;;;4.03;2.20;;;;;;;;;;5046474;28;59348;-73
2023/09/16 10:40:21;;;;;;;1.95;1.65;;;;;;;;;;5046949;28;58446;-74
2023/09/16 10:42:48;;;;;;;2.13;1.60;;;;;;;;;;5047517;28;58292;-73
2023/09/16 10:45:15;;;;;;;2.38;1.67;;;;;;;;;;5044795;28;58723;-73
2023/09/16 10:47:41;;;;;;;2.87;2.03;;;;;;;;;;5045942;27;58487;-74
2023/09/16 10:50:07;;;;;;;2.88;2.05;;;;;;;;;;5047361;28;58635;-73
2023/09/16 10:52:38;;;;;;;2.50;2.00;;;;;;;;;;5046244;27;58835;-73
2023/09/16 10:55:07;;;;;;;2.05;1.90;;;;;;;;;;5046442;28;58436;-73
2023/09/16 10:57:36;;;;;;;4.00;2.20;;;;;;;;;;5045232;28;59527;-73
2023/09/16 11:00:03;;;;;;;3.25;2.28;;;;;;;;;;5046416;28;61580;-74
2023/09/16 11:02:33;;;;;;;2.05;1.70;;;;;;;;;;5044953;27;58475;-73
2023/09/16 11:04:58;;;;;;;2.55;1.83;;;;;;;;;;5043387;28;58430;-74
2023/09/16 11:07:23;;;;;;;6.32;2.60;;;;;;;;;;5031854;28;59225;-74
2023/09/16 11:09:50;;;;;;;2.10;1.90;;;;;;;;;;5027572;28;58677;-73
2023/09/16 11:12:17;;;;;;;2.53;1.52;;;;;;;;;;5024304;28;58540;-73
2023/09/16 11:14:43;;;;;;;1.95;1.80;;;;;;;;;;5023260;28;58401;-73
2023/09/16 11:17:15;;;;;;;3.55;2.08;;;;;;;;;;5046887;28;58681;-73
2023/09/16 11:19:43;;;;;;;2.70;1.83;;;;;;;;;;5042887;28;60351;-69
2023/09/16 11:22:09;;;;;;;4.43;1.88;;;;;;;;;;5041977;28;58527;-70
2023/09/16 11:24:35;;;;;;;2.92;1.90;;;;;;;;;;5044656;28;58952;-69
2023/09/16 11:27:00;;;;;;;2.03;1.73;;;;;;;;;;5035193;28;59916;-72
2023/09/16 11:29:26;;;;;;;3.30;1.87;;;;;;;;;;5028622;28;58805;-73
2023/09/16 11:31:53;;;;;;;1.77;1.67;;;;;;;;;;5044135;28;58457;-70
2023/09/16 11:34:19;;;;;;;3.03;2.47;;;;;;;;;;5042930;28;57974;-70
2023/09/16 11:36:47;;;;;;;3.15;2.10;;;;;;;;;;5042750;28;58904;-68
2023/09/16 11:39:18;;;;;;;2.83;2.35;;;;;;;;;;5040187;27;59256;-70
2023/09/16 11:41:43;;;;;;;2.10;1.58;;;;;;;;;;5043152;28;58337;-70
2023/09/16 11:44:08;;;;;;;3.72;2.63;;;;;;;;;;5043266;28;59441;-75
2023/09/16 11:46:34;;;;;;;2.93;1.93;;;;;;;;;;5043163;28;59602;-69
2023/09/16 11:49:03;;;;;;;2.97;2.50;;;;;;;;;;5042679;28;58265;-70
2023/09/16 11:51:28;;;;;;;2.40;2.20;;;;;;;;;;5042818;27;58914;-71
2023/09/16 11:53:54;;;;;;;1.80;1.63;;;;;;;;;;5039486;28;58710;-68
2023/09/16 11:56:21;;;;;;;2.92;1.95;;;;;;;;;;5045015;28;58455;-70
2023/09/16 11:58:46;;;;;;;2.42;1.90;;;;;;;;;;5043577;28;60181;-69
2023/09/16 12:01:12;;;;;;;2.53;1.73;;;;;;;;;;5043619;28;58386;-69
2023/09/16 12:03:39;;;;;;;1.88;1.40;;;;;;;;;;5044938;27;58856;-69
2023/09/16 12:06:04;;;;;;;2.25;1.85;;;;;;;;;;5041352;28;58567;-69
2023/09/16 12:08:30;;;;;;;2.58;1.65;;;;;;;;;;5041992;28;58523;-69
2023/09/16 12:10:55;;;;;;;3.40;1.80;;;;;;;;;;5041828;27;59432;-71
2023/09/16 12:13:30;;;;;;;3.83;2.00;;;;;;;;;;5043924;28;58356;-69
2023/09/16 12:15:55;;;;;;;3.83;1.98;;;;;;;;;;5034328;28;59710;-73
2023/09/16 12:18:20;;;;;;;4.63;2.47;;;;;;;;;;5037813;28;58620;-70
2023/09/16 12:20:46;;;;;;;2.47;1.90;;;;;;;;;;5044817;28;58627;-70
2023/09/16 12:23:11;;;;;;;1.80;1.35;;;;;;;;;;5046777;28;58416;-69
2023/09/16 12:25:40;;;;;;;2.20;2.00;;;;;;;;;;5045242;28;58539;-74
2023/09/16 12:28:05;;;;;;;3.33;1.65;;;;;;;;;;5034196;28;58445;-74
2023/09/16 12:30:30;;;;;;;1.60;1.50;;;;;;;;;;5040182;28;59131;-73
2023/09/16 12:32:56;;;;;;;1.87;1.70;;;;;;;;;;5042867;28;58494;-73
2023/09/16 12:35:21;;;;;;;3.60;2.07;;;;;;;;;;5049713;28;60231;-73
2023/09/16 12:37:47;;;;;;;1.63;1.53;;;;;;;;;;5033829;28;59545;-73
2023/09/16 12:40:12;;;;;;;1.85;1.75;;;;;;;;;;5024687;28;59198;-74
2023/09/16 12:42:37;;;;;;;1.80;1.50;;;;;;;;;;5027064;28;58783;-73
2023/09/16 12:45:03;;;;;;;1.77;1.67;;;;;;;;;;5027097;28;59026;-73
2023/09/16 12:47:28;;;;;;;2.05;1.60;;;;;;;;;;5034604;28;58296;-73
2023/09/16 12:49:54;;;;;;;2.50;2.30;;;;;;;;;;5033446;27;59635;-73
2023/09/16 12:52:19;;;;;;;1.98;1.67;;;;;;;;;;5023689;28;59370;-73
2023/09/16 12:54:46;;;;;;;2.20;1.80;;;;;;;;;;5026721;28;58711;-75
2023/09/16 12:57:12;;;;;;;1.73;1.63;;;;;;;;;;5033577;27;59338;-74
2023/09/16 12:59:37;;;;;;;2.17;1.92;;;;;;;;;;5032226;28;58613;-73
2023/09/16 13:02:03;;;;;;;1.70;1.53;;;;;;;;;;5020432;28;58806;-74
2023/09/16 13:04:28;;;;;;;2.08;1.85;;;;;;;;;;5024881;28;58618;-73
2023/09/16 13:06:53;;;;;;;2.57;2.37;;;;;;;;;;5024127;28;58400;-73
2023/09/16 13:09:19;;;;;;;3.77;2.23;;;;;;;;;;5023711;28;58691;-73
2023/09/16 13:11:44;;;;;;;3.65;1.83;;;;;;;;;;5025615;27;58378;-73
2023/09/16 13:14:12;;;;;;;2.73;1.70;;;;;;;;;;5045437;28;58603;-74
2023/09/16 13:16:38;;;;;;;;;;;;;;;;;;5045908;28;59365;-73
2023/09/16 13:19:15;;;;;;;1.70;1.60;;;;;;;;;;5045812;28;58553;-73
2023/09/16 13:21:40;;;;;;;3.10;2.00;;;;;;;;;;5043915;27;59458;-73
2023/09/16 13:24:05;;;;;;;1.75;1.40;;;;;;;;;;5047346;28;58532;-73
2023/09/16 13:26:31;;;;;;;1.70;1.60;;;;;;;;;;5044375;28;58539;-68
2023/09/16 13:28:57;;;;;;;2.03;1.83;;;;;;;;;;5043602;27;60307;-71
2023/09/16 13:31:24;;;;;;;2.22;2.03;;;;;;;;;;5044382;27;58624;-72
2023/09/16 13:33:57;;;;;;;2.30;2.10;;;;;;;;;;5045145;27;58476;-74
2023/09/16 13:36:24;;;;;;;1.77;1.40;;;;;;;;;;5046105;27;58528;-74
2023/09/16 13:38:50;;;;;;;2.67;1.60;;;;;;;;;;5045002;28;58954;-73
2023/09/16 13:41:15;;;;;;;1.90;1.55;;;;;;;;;;5044456;28;59730;-76
2023/09/16 13:43:40;;;;;;;1.77;1.60;;;;;;;;;;5044061;28;60394;-72
2023/09/16 13:46:05;;;;;;;1.98;1.55;;;;;;;;;;5044959;27;58424;-72
2023/09/16 13:48:31;;;;;;;2.20;1.53;;;;;;;;;;5046232;28;58581;-73
2023/09/16 13:50:56;;;;;;;2.03;1.75;;;;;;;;;;5046467;27;60625;-73
2023/09/16 13:53:22;;;;;;;2.30;1.60;;;;;;;;;;5045003;28;58559;-72
2023/09/16 13:55:50;;;;;;;1.80;1.70;;;;;;;;;;5045643;28;59184;-72
2023/09/16 13:58:15;;;;;;;2.30;2.10;;;;;;;;;;5043609;28;58905;-74
2023/09/16 14:00:40;;;;;;;2.47;1.43;;;;;;;;;;5047036;28;58540;-72
2023/09/16 14:03:06;;;;;;;2.30;2.05;;;;;;;;;;5046718;28;59026;-73
2023/09/16 14:05:31;;;;;;;2.17;1.60;;;;;;;;;;5043654;28;58417;-73
2023/09/16 14:07:56;;;;;;;1.70;1.60;;;;;;;;;;5044891;28;59387;-72
2023/09/16 14:10:24;;;;;;;1.40;1.30;;;;;;;;;;5043740;28;59210;-72
2023/09/16 14:12:50;;;;;;;1.08;1.05;;;;;;;;;;5046524;28;58385;-72
2023/09/16 14:15:16;;;;;;;1.70;1.60;;;;;;;;;;5042966;28;60724;-73
2023/09/16 14:17:41;;;;;;;1.75;1.65;;;;;;;;;;5045995;27;58671;-72
2023/09/16 14:20:07;;;;;;;3.13;1.75;;;;;;;;;;5047981;27;58544;-72
2023/09/16 14:22:32;;;;;;;2.77;1.73;;;;;;;;;;5046415;28;60420;-72
2023/09/16 14:24:57;;;;;;;2.47;2.17;;;;;;;;;;5043990;28;58432;-72
2023/09/16 14:27:22;;;;;;;1.65;1.52;;;;;;;;;;5044569;28;59513;-73
2023/09/16 14:29:49;;;;;;;5.10;2.63;;;;;;;;;;5045258;28;60887;-72
2023/09/16 14:32:14;;;;;;;5.03;2.10;;;;;;;;;;5044951;27;58512;-74
2023/09/16 14:34:40;;;;;;;6.53;2.53;;;;;;;;;;5045669;28;58510;-73